Time;durP1;ratioP1;P1;durP2;ratioP2;P2;SDS_P1;SDS_P2;PMS_P1;PMS_P2;Temp;Humidity;BMP_temperature;BMP_pressure;BME280_temperature;BME280_humidity;BME280_pressure;Samples;Min_cycle;Max_cycle;Signal;HPM_P1;HPM_P2
2022/12/25 17:25:35;;;;;;;111.80;24.00;;;;;;;3.40;100.00;101479.78;5110963;27;20200;-71
2022/12/25 17:28:01;;;;;;;107.03;24.85;;;;;;;3.52;100.00;101479.50;5043180;27;118113;-72
2022/12/25 17:30:26;;;;;;;137.52;24.83;;;;;;;3.57;100.00;101480.72;5063333;28;20481;-73
2022/12/25 17:32:51;;;;;;;162.82;24.63;;;;;;;3.51;100.00;101491.72;5054663;28;20383;-72
2022/12/25 17:35:19;;;;;;;120.43;23.73;;;;;;;3.59;100.00;101488.34;5052649;28;20485;-73
2022/12/25 17:37:44;;;;;;;122.32;24.42;;;;;;;3.46;100.00;101475.75;5054986;28;20032;-73
2022/12/25 17:40:10;;;;;;;119.97;23.55;;;;;;;3.46;100.00;101483.56;5053807;28;20051;-73
2022/12/25 17:42:35;;;;;;;141.55;23.55;;;;;;;3.48;100.00;101488.63;5052866;28;20037;-72
2022/12/25 17:45:01;;;;;;;131.20;22.15;;;;;;;3.47;100.00;101492.16;5049667;28;20491;-73
2022/12/25 17:47:28;;;;;;;88.75;20.42;;;;;;;3.48;100.00;101501.63;5049116;28;20079;-72
2022/12/25 17:49:54;;;;;;;125.00;23.48;;;;;;;3.41;100.00;101491.81;5058376;28;20021;-74
2022/12/25 17:52:19;;;;;;;134.23;23.30;;;;;;;3.45;100.00;101494.09;5052122;28;20399;-74
2022/12/25 17:54:45;;;;;;;124.63;24.13;;;;;;;3.44;100.00;101501.09;5052379;28;20036;-75
2022/12/25 17:57:10;;;;;;;112.78;23.88;;;;;;;3.48;100.00;101502.44;5052079;28;20039;-75
2022/12/25 17:59:35;;;;;;;1999.90;957.05;;;;;;;3.62;100.00;101501.91;5053462;28;20068;-74
2022/12/25 18:02:01;;;;;;;1999.90;710.03;;;;;;;3.84;100.00;101494.56;5056174;28;20021;-74
2022/12/25 18:04:26;;;;;;;444.08;73.80;;;;;;;3.90;100.00;101469.66;5053663;28;20067;-72
2022/12/25 18:06:52;;;;;;;115.70;30.60;;;;;;;3.70;100.00;101474.28;5055558;28;20060;-74
2022/12/25 18:09:18;;;;;;;111.18;30.83;;;;;;;3.74;100.00;101493.84;5052592;28;20029;-73
2022/12/25 18:11:44;;;;;;;127.28;30.52;;;;;;;3.77;100.00;101498.75;5056100;28;20701;-75
2022/12/25 18:14:13;;;;;;;98.05;27.45;;;;;;;3.75;100.00;101496.28;5059259;28;20021;-73
2022/12/25 18:16:41;;;;;;;102.53;25.85;;;;;;;3.66;100.00;101491.16;5056155;28;20032;-72
2022/12/25 18:19:08;;;;;;;108.27;21.90;;;;;;;3.50;100.00;101489.28;5059266;28;20036;-73
2022/12/25 18:21:33;;;;;;;80.07;20.92;;;;;;;3.37;100.00;101476.63;5055021;28;20278;-73
2022/12/25 18:24:01;;;;;;;86.97;20.65;;;;;;;3.33;100.00;101486.56;5052079;28;20047;-71
2022/12/25 18:26:27;;;;;;;118.85;22.75;;;;;;;3.32;100.00;101481.47;5062614;28;20104;-73
2022/12/25 18:28:53;;;;;;;115.53;23.13;;;;;;;3.35;100.00;101488.97;5051607;28;20055;-75
2022/12/25 18:31:22;;;;;;;92.30;20.13;;;;;;;3.19;100.00;101474.06;5049604;28;20124;-74
2022/12/25 18:33:48;;;;;;;102.93;19.73;;;;;;;3.31;100.00;101482.47;5047558;28;20056;-74
2022/12/25 18:36:16;;;;;;;79.28;20.05;;;;;;;3.24;100.00;101481.44;5038793;28;20025;-74
2022/12/25 18:38:42;;;;;;;90.50;22.85;;;;;;;3.24;100.00;101491.84;5033712;28;20398;-75
2022/12/25 18:41:09;;;;;;;61.33;21.02;;;;;;;3.28;100.00;101480.13;5061443;28;20028;-74
2022/12/25 18:43:34;;;;;;;82.43;22.98;;;;;;;3.27;100.00;101487.13;5043854;28;20420;-74
2022/12/25 18:46:02;;;;;;;126.00;23.65;;;;;;;3.23;100.00;101474.56;5039346;28;20044;-73
2022/12/25 18:48:28;;;;;;;96.82;19.23;;;;;;;3.28;100.00;101482.75;5041324;28;20112;-73
2022/12/25 18:50:57;;;;;;;138.00;19.75;;;;;;;3.26;100.00;101485.50;5056772;28;20120;-73
2022/12/25 18:53:26;;;;;;;106.28;18.88;;;;;;;3.20;100.00;101467.88;5038104;28;20056;-73
2022/12/25 18:55:51;;;;;;;131.63;19.60;;;;;;;3.10;100.00;101461.94;5035667;28;20071;-73
2022/12/25 18:58:17;;;;;;;117.05;19.23;;;;;;;3.11;100.00;101461.81;5036880;28;20057;-73
2022/12/25 19:00:43;;;;;;;79.78;19.15;;;;;;;3.25;100.00;101483.88;5041333;28;21079;-73
2022/12/25 19:03:08;;;;;;;103.97;18.88;;;;;;;3.22;100.00;101475.56;5039763;28;20021;-74
2022/12/25 19:05:38;;;;;;;111.22;19.98;;;;;;;3.11;100.00;101454.00;5035978;28;20025;-72
2022/12/25 19:08:03;;;;;;;78.25;19.10;;;;;;;3.13;100.00;101462.44;5041446;28;20025;-72
2022/12/25 19:10:28;;;;;;;79.10;19.52;;;;;;;3.18;100.00;101478.47;5033156;28;20026;-72
2022/12/25 19:12:54;;;;;;;61.88;18.10;;;;;;;3.22;100.00;101486.78;5037784;28;20483;-72
2022/12/25 19:15:19;;;;;;;99.40;18.13;;;;;;;3.09;100.00;101468.09;5043058;28;20017;-72
2022/12/25 19:17:44;;;;;;;107.95;17.52;;;;;;;3.09;100.00;101488.91;5035096;28;20029;-73
2022/12/25 19:20:10;;;;;;;102.70;17.88;;;;;;;2.95;100.00;101459.88;5048174;28;20028;-73
2022/12/25 19:22:36;;;;;;;84.20;17.67;;;;;;;3.08;100.00;101474.28;5039713;28;20029;-71
2022/12/25 19:25:02;;;;;;;102.13;17.63;;;;;;;3.07;100.00;101483.88;5038838;28;20109;-72
2022/12/25 19:27:27;;;;;;;78.25;17.50;;;;;;;2.98;100.00;101463.94;5042938;28;20029;-72
2022/12/25 19:29:52;;;;;;;96.63;17.48;;;;;;;2.96;100.00;101450.28;5037548;28;20017;-73
2022/12/25 19:32:18;;;;;;;67.57;16.42;;;;;;;3.03;100.00;101461.72;5040063;28;20150;-73
2022/12/25 19:34:43;;;;;;;92.72;17.25;;;;;;;3.03;100.00;101453.09;5036012;28;20025;-73
2022/12/25 19:37:08;;;;;;;106.43;17.27;;;;;;;2.99;100.00;101465.56;5040254;28;20029;-72
2022/12/25 19:39:34;;;;;;;83.32;16.40;;;;;;;3.01;100.00;101461.03;5036651;28;20479;-72
2022/12/25 19:41:59;;;;;;;100.28;17.77;;;;;;;2.99;100.00;101455.16;5040948;28;20029;-73
2022/12/25 19:44:24;;;;;;;96.53;18.95;;;;;;;2.94;100.00;101454.81;5039208;28;20087;-73
2022/12/25 19:46:50;;;;;;;70.78;16.40;;;;;;;2.89;100.00;101450.03;5040621;28;20012;-73
2022/12/25 19:49:15;;;;;;;83.30;16.77;;;;;;;2.83;100.00;101436.84;5036097;28;20033;-71
2022/12/25 19:51:43;;;;;;;94.35;17.80;;;;;;;2.87;100.00;101466.75;5037097;28;20415;-71
2022/12/25 19:54:32;;;;;;;73.53;17.10;;;;;;;2.87;100.00;101451.16;5044612;28;20969;-72
2022/12/25 19:56:57;;;;;;;71.28;16.92;;;;;;;2.90;100.00;101450.88;5038866;28;20471;-73
2022/12/25 19:59:23;;;;;;;95.18;17.05;;;;;;;2.92;100.00;101439.34;5037797;28;20044;-73
2022/12/25 20:01:48;;;;;;;86.53;17.63;;;;;;;2.80;100.00;101417.09;5033366;28;20032;-71
2022/12/25 20:04:16;;;;;;;72.22;16.80;;;;;;;2.95;100.00;101436.44;5045424;28;20535;-73
2022/12/25 20:06:43;;;;;;;65.85;17.38;;;;;;;2.94;100.00;101428.78;5039878;28;20028;-72
2022/12/25 20:09:13;;;;;;;89.53;18.35;;;;;;;2.96;100.00;101443.28;5038964;28;20897;-72
2022/12/25 20:11:39;;;;;;;81.72;18.95;;;;;;;2.97;100.00;101449.31;5042200;28;20686;-72
2022/12/25 20:14:06;;;;;;;93.13;19.92;;;;;;;2.98;100.00;101437.94;5031895;28;20025;-72
2022/12/25 20:16:34;;;;;;;94.43;21.23;;;;;;;2.96;100.00;101432.06;5035271;28;20498;-73
2022/12/25 20:18:59;;;;;;;95.63;20.83;;;;;;;3.00;100.00;101445.59;5034525;28;20033;-74
2022/12/25 20:21:28;;;;;;;82.32;20.33;;;;;;;2.93;100.00;101446.19;5033559;28;20489;-73
2022/12/25 20:23:54;;;;;;;60.60;19.33;;;;;;;2.95;100.00;101443.44;5036549;28;20045;-73
2022/12/25 20:26:23;;;;;;;71.63;19.77;;;;;;;2.90;100.00;101448.28;5041056;28;20049;-72
2022/12/25 20:28:49;;;;;;;75.07;19.85;;;;;;;2.93;100.00;101445.38;5032508;28;20548;-73
2022/12/25 20:31:17;;;;;;;74.95;18.88;;;;;;;2.93;100.00;101440.97;5032966;28;20024;-70
2022/12/25 20:33:43;;;;;;;90.00;18.33;;;;;;;2.89;100.00;101434.44;5040111;28;20383;-70
2022/12/25 20:36:09;;;;;;;94.57;18.80;;;;;;;2.87;100.00;101425.16;5044607;28;20033;-70
2022/12/25 20:38:35;;;;;;;66.15;17.50;;;;;;;2.80;100.00;101421.50;5043086;28;20032;-70
2022/12/25 20:41:16;;;;;;;65.50;17.60;;;;;;;2.87;100.00;101438.97;5030304;28;20016;-72
2022/12/25 20:43:41;;;;;;;58.88;17.25;;;;;;;2.77;100.00;101435.63;5034105;28;20167;-71
2022/12/25 20:46:07;;;;;;;70.75;17.42;;;;;;;2.76;100.00;101429.59;5031314;28;20457;-71
2022/12/25 20:48:33;;;;;;;83.47;18.50;;;;;;;2.82;100.00;101448.19;5042353;28;20025;-72
2022/12/25 20:51:22;;;;;;;78.25;18.90;;;;;;;2.65;100.00;101429.00;5035539;28;20375;-71
2022/12/25 20:53:48;;;;;;;81.95;17.88;;;;;;;2.73;100.00;101442.06;5050334;28;20032;-71
2022/12/25 20:56:16;;;;;;;70.43;18.50;;;;;;;2.67;100.00;101432.28;5034635;28;20033;-72
2022/12/25 20:58:42;;;;;;;88.07;17.90;;;;;;;2.77;100.00;101454.63;5035730;28;20176;-71
2022/12/25 21:01:10;;;;;;;58.58;16.33;;;;;;;2.62;100.00;101456.13;5031050;28;20867;-71
2022/12/25 21:03:36;;;;;;;73.65;17.10;;;;;;;2.65;100.00;101468.81;5039948;28;20438;-70
2022/12/25 21:06:02;;;;;;;69.25;16.90;;;;;;;2.50;100.00;101450.31;5034956;28;20029;-71
2022/12/25 21:08:27;;;;;;;80.95;16.90;;;;;;;2.63;100.00;101467.34;5048819;28;20036;-70
2022/12/25 21:10:59;;;;;;;80.60;16.77;;;;;;;2.62;100.00;101466.53;5034066;28;20025;-70
2022/12/25 21:13:26;;;;;;;76.07;16.25;;;;;;;2.58;100.00;101459.16;5036363;28;20033;-71
2022/12/25 21:15:51;;;;;;;70.50;17.42;;;;;;;2.55;100.00;101462.88;5038820;28;20108;-71
2022/12/25 21:18:19;;;;;;;79.57;17.33;;;;;;;2.52;100.00;101463.16;5036498;28;20158;-72
2022/12/25 21:20:50;;;;;;;76.97;17.95;;;;;;;2.53;100.00;101465.59;5044937;28;20040;-71
2022/12/25 21:23:16;;;;;;;85.07;16.73;;;;;;;2.51;100.00;101469.31;5042597;28;20103;-72
2022/12/25 21:25:42;;;;;;;70.55;16.65;;;;;;;2.44;100.00;101469.09;5053879;28;20033;-74
2022/12/25 21:28:08;;;;;;;57.60;16.38;;;;;;;2.42;100.00;101458.03;5028300;28;20032;-73
2022/12/25 21:30:34;;;;;;;49.53;15.60;;;;;;;2.34;100.00;101437.13;5039528;28;20028;-73
2022/12/25 21:35:43;;;;;;;62.63;16.63;;;;;;;2.28;100.00;101440.31;5033087;28;20044;-73
2022/12/25 21:38:09;;;;;;;66.88;16.38;;;;;;;2.30;100.00;101444.41;5032042;28;20029;-73
2022/12/25 21:40:35;;;;;;;63.15;15.70;;;;;;;1.87;100.00;101383.50;5034618;28;20033;-73
2022/12/25 21:43:01;;;;;;;51.08;16.33;;;;;;;2.32;100.00;101463.28;5035007;28;20029;-73
2022/12/25 21:45:28;;;;;;;67.05;17.02;;;;;;;2.30;100.00;101454.81;5039418;28;20036;-73
2022/12/25 21:47:53;;;;;;;50.90;15.65;;;;;;;2.30;100.00;101462.59;5053806;28;20036;-74
2022/12/25 21:53:03;;;;;;;49.83;16.58;;;;;;;2.31;100.00;101456.44;5033530;28;20594;-73
2022/12/25 21:55:29;;;;;;;50.25;16.20;;;;;;;2.31;100.00;101460.81;5037537;28;20021;-75
2022/12/25 21:57:55;;;;;;;69.93;18.17;;;;;;;2.29;100.00;101447.13;5033204;28;20716;-74
2022/12/25 22:00:20;;;;;;;48.85;16.00;;;;;;;2.32;100.00;101455.47;5038773;28;20026;-73
2022/12/25 22:02:49;;;;;;;50.78;17.27;;;;;;;2.30;100.00;101446.19;5038921;28;20083;-73
2022/12/25 22:07:15;;;;;;;44.72;17.05;;;;;;;2.30;100.00;101435.81;5035783;28;20056;-73
2022/12/25 22:07:59;;;;;;;44.97;17.58;;;;;;;2.23;100.00;101417.34;5033257;28;20057;-74
2022/12/25 22:10:25;;;;;;;47.42;18.20;;;;;;;2.31;100.00;101430.44;5032366;28;20052;-74
2022/12/25 22:21:02;;;;;;;42.00;18.30;;;;;;;2.32;100.00;101406.09;5035674;28;20031;-73
2022/12/25 22:23:28;;;;;;;47.92;21.50;;;;;;;2.36;100.00;101408.41;5039860;28;20049;-73
2022/12/25 22:25:53;;;;;;;50.22;21.10;;;;;;;2.23;100.00;101399.16;5038056;28;20040;-73
2022/12/25 22:28:18;;;;;;;43.30;19.73;;;;;;;2.31;100.00;101408.84;5034387;28;20499;-73
2022/12/25 22:30:44;;;;;;;47.03;20.80;;;;;;;2.41;100.00;101419.16;5038427;28;20505;-73
2022/12/25 22:33:09;;;;;;;52.80;22.80;;;;;;;2.38;100.00;101404.69;5042575;28;20487;-73
2022/12/25 22:35:34;;;;;;;49.95;23.13;;;;;;;2.40;100.00;101407.97;5044215;28;20048;-73
2022/12/25 22:38:00;;;;;;;51.50;25.80;;;;;;;2.35;100.00;101397.19;5031845;28;20021;-73
2022/12/25 22:40:25;;;;;;;54.03;23.95;;;;;;;2.41;100.00;101411.38;5053312;28;20122;-73
2022/12/25 22:42:55;;;;;;;52.00;24.63;;;;;;;2.36;100.00;101408.41;5044730;28;20037;-73
2022/12/25 22:45:21;;;;;;;51.63;23.13;;;;;;;2.46;100.00;101424.75;5039702;28;20102;-73
2022/12/25 22:47:46;;;;;;;54.35;23.02;;;;;;;2.42;100.00;101419.03;5036260;28;20033;-72
2022/12/25 22:50:15;;;;;;;50.10;23.20;;;;;;;2.22;100.00;101396.72;5038360;28;20029;-72
2022/12/25 22:52:41;;;;;;;50.67;22.75;;;;;;;2.33;100.00;101401.72;5043304;28;20696;-73
2022/12/25 22:55:08;;;;;;;51.55;24.13;;;;;;;2.30;100.00;101394.22;5042232;28;20029;-72
2022/12/25 22:57:34;;;;;;;57.30;24.85;;;;;;;2.47;100.00;101403.81;5035544;28;20376;-73
2022/12/25 22:59:59;;;;;;;59.28;26.33;;;;;;;2.50;100.00;101410.50;5038601;28;20171;-73
2022/12/25 23:02:25;;;;;;;54.63;24.35;;;;;;;2.48;100.00;101404.63;5035964;28;20068;-72
2022/12/25 23:04:50;;;;;;;49.53;22.88;;;;;;;2.47;100.00;101403.00;5043177;28;20037;-72
2022/12/25 23:07:16;;;;;;;49.95;22.40;;;;;;;2.51;100.00;101394.75;5035769;28;20399;-72
2022/12/25 23:09:42;;;;;;;47.80;22.42;;;;;;;2.48;100.00;101387.25;5040791;28;20433;-72
2022/12/25 23:14:37;;;;;;;52.30;23.08;;;;;;;2.56;100.00;101391.69;5036526;28;20048;-73
2022/12/25 23:14:54;;;;;;;47.92;21.85;;;;;;;2.53;100.00;101379.00;5039055;28;20036;-72
2022/12/25 23:26:19;;;;;;;45.83;20.42;;;;;;;2.64;100.00;101373.59;5041399;28;21087;-72
2022/12/25 23:31:04;;;;;;;47.42;21.10;;;;;;;2.63;100.00;101369.34;5032047;28;20122;-73
2022/12/25 23:33:30;;;;;;;46.95;20.23;;;;;;;2.63;100.00;101366.72;5046585;28;20024;-73
2022/12/25 23:35:55;;;;;;;45.53;19.98;;;;;;;2.65;100.00;101356.19;5040683;28;20075;-72
2022/12/25 23:38:20;;;;;;;47.13;20.75;;;;;;;2.65;100.00;101349.19;5037218;28;20459;-70
2022/12/25 23:40:46;;;;;;;48.25;20.90;;;;;;;2.63;100.00;101337.31;5037706;28;20087;-70
2022/12/25 23:43:11;;;;;;;52.63;21.25;;;;;;;2.66;100.00;101345.66;5041611;28;20839;-71
2022/12/25 23:45:36;;;;;;;46.38;20.50;;;;;;;2.67;100.00;101344.69;5039415;28;20455;-71
2022/12/25 23:48:02;;;;;;;44.80;19.63;;;;;;;2.70;100.00;101356.56;5040954;28;20098;-71
2022/12/25 23:50:27;;;;;;;43.80;18.63;;;;;;;2.64;100.00;101337.19;5046821;28;20028;-71
2022/12/25 23:52:53;;;;;;;45.38;19.95;;;;;;;2.77;100.00;101357.59;5040622;28;20479;-71
2022/12/25 23:55:18;;;;;;;38.60;19.48;;;;;;;2.46;100.00;101305.16;5034203;28;20017;-70
2022/12/25 23:57:43;;;;;;;37.40;18.25;;;;;;;2.66;100.00;101334.41;5043568;28;20029;-71
